sensor_id;sensor_type;location;lat;lon;timestamp;P1;durP1;ratioP1;P2;durP2;ratioP2
74229;SDS011;62589;12.568;99.958;2022-11-20T00:02:14;8.10;;;3.75;;
74229;SDS011;62589;12.568;99.958;2022-11-20T00:04:41;7.20;;;3.83;;
74229;SDS011;62589;12.568;99.958;2022-11-20T00:07:07;7.32;;;3.60;;
74229;SDS011;62589;12.568;99.958;2022-11-20T00:09:34;5.68;;;3.78;;
74229;SDS011;62589;12.568;99.958;2022-11-20T00:12:01;7.50;;;3.70;;
74229;SDS011;62589;12.568;99.958;2022-11-20T00:14:28;7.20;;;3.72;;
74229;SDS011;62589;12.568;99.958;2022-11-20T00:16:55;5.55;;;3.75;;
74229;SDS011;62589;12.568;99.958;2022-11-20T00:19:22;5.30;;;3.85;;
74229;SDS011;62589;12.568;99.958;2022-11-20T00:21:48;7.28;;;4.03;;
74229;SDS011;62589;12.568;99.958;2022-11-20T00:24:16;7.55;;;3.80;;
74229;SDS011;62589;12.568;99.958;2022-11-20T00:26:43;4.28;;;3.28;;
74229;SDS011;62589;12.568;99.958;2022-11-20T00:29:10;4.10;;;3.25;;
74229;SDS011;62589;12.568;99.958;2022-11-20T00:31:37;9.30;;;3.72;;
74229;SDS011;62589;12.568;99.958;2022-11-20T00:34:04;4.40;;;3.60;;
74229;SDS011;62589;12.568;99.958;2022-11-20T00:36:32;5.47;;;3.13;;
74229;SDS011;62589;12.568;99.958;2022-11-20T00:38:59;4.47;;;3.38;;
74229;SDS011;62589;12.568;99.958;2022-11-20T00:41:27;6.63;;;3.30;;
74229;SDS011;62589;12.568;99.958;2022-11-20T00:43:55;5.68;;;3.65;;
74229;SDS011;62589;12.568;99.958;2022-11-20T00:46:23;4.55;;;3.28;;
74229;SDS011;62589;12.568;99.958;2022-11-20T00:48:52;4.25;;;3.53;;
74229;SDS011;62589;12.568;99.958;2022-11-20T00:51:20;5.72;;;3.58;;
74229;SDS011;62589;12.568;99.958;2022-11-20T00:53:48;6.75;;;3.65;;
74229;SDS011;62589;12.568;99.958;2022-11-20T00:56:16;7.57;;;3.35;;
74229;SDS011;62589;12.568;99.958;2022-11-20T00:58:45;6.47;;;3.42;;
74229;SDS011;62589;12.568;99.958;2022-11-20T01:01:19;5.88;;;4.07;;
74229;SDS011;62589;12.568;99.958;2022-11-20T01:03:52;7.65;;;3.60;;
74229;SDS011;62589;12.568;99.958;2022-11-20T01:06:21;4.60;;;3.80;;
74229;SDS011;62589;12.568;99.958;2022-11-20T01:08:54;6.35;;;3.60;;
74229;SDS011;62589;12.568;99.958;2022-11-20T01:11:23;6.30;;;3.80;;
74229;SDS011;62589;12.568;99.958;2022-11-20T01:13:52;4.85;;;3.20;;
74229;SDS011;62589;12.568;99.958;2022-11-20T01:16:22;4.75;;;3.22;;
74229;SDS011;62589;12.568;99.958;2022-11-20T01:18:54;6.68;;;3.97;;
74229;SDS011;62589;12.568;99.958;2022-11-20T01:21:25;5.20;;;3.50;;
74229;SDS011;62589;12.568;99.958;2022-11-20T01:23:54;6.50;;;3.80;;
74229;SDS011;62589;12.568;99.958;2022-11-20T01:26:23;6.45;;;3.60;;
74229;SDS011;62589;12.568;99.958;2022-11-20T01:28:55;4.75;;;3.80;;
74229;SDS011;62589;12.568;99.958;2022-11-20T01:31:27;4.18;;;3.05;;
74229;SDS011;62589;12.568;99.958;2022-11-20T01:33:57;5.00;;;3.35;;
74229;SDS011;62589;12.568;99.958;2022-11-20T01:36:26;4.95;;;3.58;;
74229;SDS011;62589;12.568;99.958;2022-11-20T01:38:55;4.78;;;3.38;;
74229;SDS011;62589;12.568;99.958;2022-11-20T01:41:23;5.03;;;3.03;;
74229;SDS011;62589;12.568;99.958;2022-11-20T01:44:04;4.65;;;3.55;;
74229;SDS011;62589;12.568;99.958;2022-11-20T01:46:31;5.93;;;3.13;;
74229;SDS011;62589;12.568;99.958;2022-11-20T01:49:05;7.15;;;3.92;;
74229;SDS011;62589;12.568;99.958;2022-11-20T01:51:55;5.93;;;4.05;;
74229;SDS011;62589;12.568;99.958;2022-11-20T01:57:12;5.72;;;3.65;;
74229;SDS011;62589;12.568;99.958;2022-11-20T01:59:44;5.03;;;3.53;;
74229;SDS011;62589;12.568;99.958;2022-11-20T02:04:41;6.57;;;4.03;;
74229;SDS011;62589;12.568;99.958;2022-11-20T02:07:08;6.20;;;3.75;;
74229;SDS011;62589;12.568;99.958;2022-11-20T02:09:34;7.63;;;3.90;;
74229;SDS011;62589;12.568;99.958;2022-11-20T02:12:01;4.93;;;3.38;;
74229;SDS011;62589;12.568;99.958;2022-11-20T02:14:30;5.85;;;3.85;;
74229;SDS011;62589;12.568;99.958;2022-11-20T02:16:57;7.95;;;3.90;;
74229;SDS011;62589;12.568;99.958;2022-11-20T02:19:28;7.22;;;3.83;;
74229;SDS011;62589;12.568;99.958;2022-11-20T02:22:00;4.88;;;3.58;;
74229;SDS011;62589;12.568;99.958;2022-11-20T02:24:34;6.97;;;3.92;;
74229;SDS011;62589;12.568;99.958;2022-11-20T02:27:07;6.18;;;3.83;;
74229;SDS011;62589;12.568;99.958;2022-11-20T02:29:50;5.78;;;3.80;;
74229;SDS011;62589;12.568;99.958;2022-11-20T02:32:29;6.90;;;3.85;;
74229;SDS011;62589;12.568;99.958;2022-11-20T02:34:58;6.47;;;3.80;;
74229;SDS011;62589;12.568;99.958;2022-11-20T02:37:32;6.53;;;4.22;;
74229;SDS011;62589;12.568;99.958;2022-11-20T02:40:02;8.13;;;4.40;;
74229;SDS011;62589;12.568;99.958;2022-11-20T02:42:30;6.10;;;3.63;;
74229;SDS011;62589;12.568;99.958;2022-11-20T02:44:56;7.35;;;3.92;;
74229;SDS011;62589;12.568;99.958;2022-11-20T02:47:23;5.45;;;3.90;;
74229;SDS011;62589;12.568;99.958;2022-11-20T02:49:50;6.35;;;3.90;;
74229;SDS011;62589;12.568;99.958;2022-11-20T02:52:16;7.78;;;3.55;;
74229;SDS011;62589;12.568;99.958;2022-11-20T02:54:43;7.38;;;4.22;;
74229;SDS011;62589;12.568;99.958;2022-11-20T02:57:10;8.48;;;3.80;;
74229;SDS011;62589;12.568;99.958;2022-11-20T02:59:37;6.43;;;3.97;;
74229;SDS011;62589;12.568;99.958;2022-11-20T03:02:03;7.60;;;3.70;;
74229;SDS011;62589;12.568;99.958;2022-11-20T03:04:30;7.05;;;4.25;;
74229;SDS011;62589;12.568;99.958;2022-11-20T03:06:57;7.72;;;4.25;;
74229;SDS011;62589;12.568;99.958;2022-11-20T03:09:24;5.40;;;3.70;;
74229;SDS011;62589;12.568;99.958;2022-11-20T03:11:50;4.75;;;3.30;;
74229;SDS011;62589;12.568;99.958;2022-11-20T03:14:17;6.25;;;4.00;;
74229;SDS011;62589;12.568;99.958;2022-11-20T03:16:44;7.10;;;3.58;;
74229;SDS011;62589;12.568;99.958;2022-11-20T03:19:11;6.68;;;3.72;;
74229;SDS011;62589;12.568;99.958;2022-11-20T03:21:39;5.47;;;3.38;;
74229;SDS011;62589;12.568;99.958;2022-11-20T03:24:06;7.30;;;4.25;;
74229;SDS011;62589;12.568;99.958;2022-11-20T03:26:33;7.40;;;4.05;;
74229;SDS011;62589;12.568;99.958;2022-11-20T03:29:00;7.18;;;4.00;;
74229;SDS011;62589;12.568;99.958;2022-11-20T03:31:30;5.00;;;3.50;;
74229;SDS011;62589;12.568;99.958;2022-11-20T03:34:00;7.72;;;3.88;;
74229;SDS011;62589;12.568;99.958;2022-11-20T03:36:29;6.80;;;4.00;;
74229;SDS011;62589;12.568;99.958;2022-11-20T03:38:56;5.13;;;3.50;;
74229;SDS011;62589;12.568;99.958;2022-11-20T03:41:24;6.70;;;3.67;;
74229;SDS011;62589;12.568;99.958;2022-11-20T03:43:52;10.50;;;4.15;;
74229;SDS011;62589;12.568;99.958;2022-11-20T03:46:24;6.53;;;3.72;;
74229;SDS011;62589;12.568;99.958;2022-11-20T03:48:51;5.53;;;3.40;;
74229;SDS011;62589;12.568;99.958;2022-11-20T03:51:20;7.60;;;3.65;;
74229;SDS011;62589;12.568;99.958;2022-11-20T03:53:51;4.88;;;3.70;;
74229;SDS011;62589;12.568;99.958;2022-11-20T03:56:20;12.75;;;4.55;;
74229;SDS011;62589;12.568;99.958;2022-11-20T03:58:50;9.77;;;3.88;;
74229;SDS011;62589;12.568;99.958;2022-11-20T04:01:21;7.80;;;4.13;;
74229;SDS011;62589;12.568;99.958;2022-11-20T04:03:51;6.10;;;3.83;;
74229;SDS011;62589;12.568;99.958;2022-11-20T04:06:21;7.07;;;4.43;;
74229;SDS011;62589;12.568;99.958;2022-11-20T04:08:50;7.43;;;4.28;;
74229;SDS011;62589;12.568;99.958;2022-11-20T04:11:19;11.30;;;5.00;;
74229;SDS011;62589;12.568;99.958;2022-11-20T04:13:48;6.18;;;4.30;;
74229;SDS011;62589;12.568;99.958;2022-11-20T04:16:17;6.32;;;4.28;;
74229;SDS011;62589;12.568;99.958;2022-11-20T04:18:44;9.80;;;4.65;;
74229;SDS011;62589;12.568;99.958;2022-11-20T04:21:11;6.97;;;3.97;;
74229;SDS011;62589;12.568;99.958;2022-11-20T04:23:38;5.18;;;3.30;;
74229;SDS011;62589;12.568;99.958;2022-11-20T04:26:05;6.82;;;4.10;;
74229;SDS011;62589;12.568;99.958;2022-11-20T04:28:34;6.70;;;4.22;;
74229;SDS011;62589;12.568;99.958;2022-11-20T04:31:08;9.48;;;4.13;;
74229;SDS011;62589;12.568;99.958;2022-11-20T04:33:40;5.35;;;3.47;;
74229;SDS011;62589;12.568;99.958;2022-11-20T04:36:11;6.07;;;3.72;;
74229;SDS011;62589;12.568;99.958;2022-11-20T04:38:39;4.90;;;3.03;;
74229;SDS011;62589;12.568;99.958;2022-11-20T04:41:06;6.78;;;3.30;;
74229;SDS011;62589;12.568;99.958;2022-11-20T04:43:35;6.47;;;4.00;;
74229;SDS011;62589;12.568;99.958;2022-11-20T04:46:02;5.18;;;3.10;;
74229;SDS011;62589;12.568;99.958;2022-11-20T04:48:28;6.68;;;3.35;;
74229;SDS011;62589;12.568;99.958;2022-11-20T04:50:55;7.15;;;3.63;;
74229;SDS011;62589;12.568;99.958;2022-11-20T04:53:22;5.18;;;3.50;;
74229;SDS011;62589;12.568;99.958;2022-11-20T04:55:49;5.28;;;3.63;;
74229;SDS011;62589;12.568;99.958;2022-11-20T04:58:16;6.68;;;3.85;;
74229;SDS011;62589;12.568;99.958;2022-11-20T05:00:42;5.20;;;2.97;;
74229;SDS011;62589;12.568;99.958;2022-11-20T05:03:12;6.90;;;3.20;;
74229;SDS011;62589;12.568;99.958;2022-11-20T05:05:38;4.30;;;2.95;;
74229;SDS011;62589;12.568;99.958;2022-11-20T05:08:05;5.93;;;3.17;;
74229;SDS011;62589;12.568;99.958;2022-11-20T05:10:31;5.18;;;3.20;;
74229;SDS011;62589;12.568;99.958;2022-11-20T05:12:58;5.75;;;3.42;;
74229;SDS011;62589;12.568;99.958;2022-11-20T05:15:24;7.88;;;3.70;;
74229;SDS011;62589;12.568;99.958;2022-11-20T05:17:51;5.82;;;3.40;;
74229;SDS011;62589;12.568;99.958;2022-11-20T05:20:18;5.80;;;3.03;;
74229;SDS011;62589;12.568;99.958;2022-11-20T05:22:45;3.95;;;3.22;;
74229;SDS011;62589;12.568;99.958;2022-11-20T05:25:11;5.03;;;3.05;;
74229;SDS011;62589;12.568;99.958;2022-11-20T05:27:38;8.02;;;3.60;;
74229;SDS011;62589;12.568;99.958;2022-11-20T05:30:05;4.43;;;3.42;;
74229;SDS011;62589;12.568;99.958;2022-11-20T05:32:32;5.88;;;3.67;;
74229;SDS011;62589;12.568;99.958;2022-11-20T05:34:58;5.90;;;3.28;;
74229;SDS011;62589;12.568;99.958;2022-11-20T05:37:25;4.53;;;3.10;;
74229;SDS011;62589;12.568;99.958;2022-11-20T05:39:51;5.28;;;3.20;;
74229;SDS011;62589;12.568;99.958;2022-11-20T05:42:18;4.43;;;3.00;;
74229;SDS011;62589;12.568;99.958;2022-11-20T05:44:56;4.95;;;3.00;;
74229;SDS011;62589;12.568;99.958;2022-11-20T05:47:23;4.55;;;2.60;;
74229;SDS011;62589;12.568;99.958;2022-11-20T05:49:50;4.75;;;2.60;;
74229;SDS011;62589;12.568;99.958;2022-11-20T05:52:17;5.10;;;2.50;;
74229;SDS011;62589;12.568;99.958;2022-11-20T05:54:43;3.70;;;2.60;;
74229;SDS011;62589;12.568;99.958;2022-11-20T05:57:10;2.65;;;2.03;;
74229;SDS011;62589;12.568;99.958;2022-11-20T05:59:36;3.95;;;2.45;;
74229;SDS011;62589;12.568;99.958;2022-11-20T06:02:03;3.92;;;2.67;;
74229;SDS011;62589;12.568;99.958;2022-11-20T06:04:29;5.50;;;2.83;;
74229;SDS011;62589;12.568;99.958;2022-11-20T06:06:56;4.18;;;2.30;;
74229;SDS011;62589;12.568;99.958;2022-11-20T06:09:22;3.10;;;2.13;;
74229;SDS011;62589;12.568;99.958;2022-11-20T06:11:48;6.32;;;2.33;;
74229;SDS011;62589;12.568;99.958;2022-11-20T06:14:19;5.10;;;2.58;;
74229;SDS011;62589;12.568;99.958;2022-11-20T06:16:46;4.55;;;2.72;;
74229;SDS011;62589;12.568;99.958;2022-11-20T06:19:12;3.75;;;2.40;;
74229;SDS011;62589;12.568;99.958;2022-11-20T06:21:40;3.05;;;2.42;;
74229;SDS011;62589;12.568;99.958;2022-11-20T06:24:08;4.72;;;2.90;;
74229;SDS011;62589;12.568;99.958;2022-11-20T06:26:36;4.57;;;3.30;;
74229;SDS011;62589;12.568;99.958;2022-11-20T06:29:03;6.57;;;3.42;;
74229;SDS011;62589;12.568;99.958;2022-11-20T06:31:29;6.07;;;3.72;;
74229;SDS011;62589;12.568;99.958;2022-11-20T06:34:00;5.78;;;3.22;;
74229;SDS011;62589;12.568;99.958;2022-11-20T06:36:27;6.75;;;3.33;;
74229;SDS011;62589;12.568;99.958;2022-11-20T06:38:54;4.50;;;3.35;;
74229;SDS011;62589;12.568;99.958;2022-11-20T06:41:21;6.97;;;4.07;;
74229;SDS011;62589;12.568;99.958;2022-11-20T06:43:48;5.40;;;3.45;;
74229;SDS011;62589;12.568;99.958;2022-11-20T06:46:15;9.15;;;4.68;;
74229;SDS011;62589;12.568;99.958;2022-11-20T06:48:44;9.35;;;4.70;;
74229;SDS011;62589;12.568;99.958;2022-11-20T06:51:12;6.38;;;4.68;;
74229;SDS011;62589;12.568;99.958;2022-11-20T06:53:39;5.07;;;3.80;;
74229;SDS011;62589;12.568;99.958;2022-11-20T06:56:06;5.40;;;4.38;;
74229;SDS011;62589;12.568;99.958;2022-11-20T06:58:34;6.53;;;4.65;;
74229;SDS011;62589;12.568;99.958;2022-11-20T07:01:02;5.97;;;4.30;;
74229;SDS011;62589;12.568;99.958;2022-11-20T07:03:32;7.60;;;5.07;;
74229;SDS011;62589;12.568;99.958;2022-11-20T07:05:59;6.60;;;4.80;;
74229;SDS011;62589;12.568;99.958;2022-11-20T07:08:27;8.88;;;4.57;;
74229;SDS011;62589;12.568;99.958;2022-11-20T07:10:58;7.13;;;5.10;;
74229;SDS011;62589;12.568;99.958;2022-11-20T07:13:26;8.40;;;5.30;;
74229;SDS011;62589;12.568;99.958;2022-11-20T07:15:53;7.60;;;5.00;;
74229;SDS011;62589;12.568;99.958;2022-11-20T07:18:20;12.20;;;5.88;;
74229;SDS011;62589;12.568;99.958;2022-11-20T07:20:47;8.00;;;5.38;;
74229;SDS011;62589;12.568;99.958;2022-11-20T07:23:14;11.50;;;6.05;;
74229;SDS011;62589;12.568;99.958;2022-11-20T07:25:41;8.63;;;5.07;;
74229;SDS011;62589;12.568;99.958;2022-11-20T07:28:08;8.05;;;5.40;;
74229;SDS011;62589;12.568;99.958;2022-11-20T07:30:36;10.95;;;4.88;;
74229;SDS011;62589;12.568;99.958;2022-11-20T07:33:03;9.88;;;5.10;;
74229;SDS011;62589;12.568;99.958;2022-11-20T07:35:30;10.65;;;5.28;;
74229;SDS011;62589;12.568;99.958;2022-11-20T07:37:56;7.57;;;4.55;;
74229;SDS011;62589;12.568;99.958;2022-11-20T07:40:23;5.80;;;4.35;;
74229;SDS011;62589;12.568;99.958;2022-11-20T07:42:51;5.40;;;4.28;;
74229;SDS011;62589;12.568;99.958;2022-11-20T07:45:22;4.47;;;3.42;;
74229;SDS011;62589;12.568;99.958;2022-11-20T07:47:50;6.38;;;3.70;;
74229;SDS011;62589;12.568;99.958;2022-11-20T07:50:17;6.22;;;3.55;;
74229;SDS011;62589;12.568;99.958;2022-11-20T07:52:45;4.93;;;3.00;;
74229;SDS011;62589;12.568;99.958;2022-11-20T07:55:12;6.88;;;3.00;;
74229;SDS011;62589;12.568;99.958;2022-11-20T07:57:39;7.55;;;3.38;;
74229;SDS011;62589;12.568;99.958;2022-11-20T08:00:07;4.15;;;2.47;;
74229;SDS011;62589;12.568;99.958;2022-11-20T08:02:38;4.30;;;2.38;;
74229;SDS011;62589;12.568;99.958;2022-11-20T08:05:06;4.55;;;2.33;;
74229;SDS011;62589;12.568;99.958;2022-11-20T08:07:37;5.68;;;2.45;;
74229;SDS011;62589;12.568;99.958;2022-11-20T08:10:05;4.28;;;2.08;;
74229;SDS011;62589;12.568;99.958;2022-11-20T08:12:33;2.95;;;2.05;;
74229;SDS011;62589;12.568;99.958;2022-11-20T08:15:11;4.10;;;2.10;;
74229;SDS011;62589;12.568;99.958;2022-11-20T08:17:37;4.65;;;2.10;;
74229;SDS011;62589;12.568;99.958;2022-11-20T08:20:04;3.63;;;2.10;;
74229;SDS011;62589;12.568;99.958;2022-11-20T08:22:30;5.95;;;2.30;;
74229;SDS011;62589;12.568;99.958;2022-11-20T08:24:57;4.15;;;2.42;;
74229;SDS011;62589;12.568;99.958;2022-11-20T08:27:23;4.47;;;2.60;;
74229;SDS011;62589;12.568;99.958;2022-11-20T08:29:50;3.50;;;2.45;;
74229;SDS011;62589;12.568;99.958;2022-11-20T08:32:16;6.13;;;3.33;;
74229;SDS011;62589;12.568;99.958;2022-11-20T08:34:43;4.50;;;2.35;;
74229;SDS011;62589;12.568;99.958;2022-11-20T08:37:09;4.53;;;2.65;;
74229;SDS011;62589;12.568;99.958;2022-11-20T08:39:35;3.38;;;2.22;;
74229;SDS011;62589;12.568;99.958;2022-11-20T08:42:02;3.83;;;2.45;;
74229;SDS011;62589;12.568;99.958;2022-11-20T08:44:32;4.13;;;2.80;;
74229;SDS011;62589;12.568;99.958;2022-11-20T08:46:58;3.70;;;2.60;;
74229;SDS011;62589;12.568;99.958;2022-11-20T08:49:26;4.55;;;2.80;;
74229;SDS011;62589;12.568;99.958;2022-11-20T08:51:52;4.07;;;2.70;;
74229;SDS011;62589;12.568;99.958;2022-11-20T08:54:20;4.00;;;2.72;;
74229;SDS011;62589;12.568;99.958;2022-11-20T08:56:48;4.95;;;2.97;;
74229;SDS011;62589;12.568;99.958;2022-11-20T08:59:14;5.70;;;2.55;;
74229;SDS011;62589;12.568;99.958;2022-11-20T09:01:40;4.35;;;2.42;;
74229;SDS011;62589;12.568;99.958;2022-11-20T09:04:07;4.25;;;2.70;;
74229;SDS011;62589;12.568;99.958;2022-11-20T09:06:33;6.13;;;3.20;;
74229;SDS011;62589;12.568;99.958;2022-11-20T09:09:00;3.67;;;2.90;;
74229;SDS011;62589;12.568;99.958;2022-11-20T09:11:26;5.72;;;2.85;;
74229;SDS011;62589;12.568;99.958;2022-11-20T09:13:53;7.82;;;3.28;;
74229;SDS011;62589;12.568;99.958;2022-11-20T09:16:19;3.53;;;2.83;;
74229;SDS011;62589;12.568;99.958;2022-11-20T09:18:45;4.85;;;3.08;;
74229;SDS011;62589;12.568;99.958;2022-11-20T09:21:12;4.47;;;2.88;;
74229;SDS011;62589;12.568;99.958;2022-11-20T09:23:39;3.80;;;2.38;;
74229;SDS011;62589;12.568;99.958;2022-11-20T09:26:08;4.40;;;2.78;;
74229;SDS011;62589;12.568;99.958;2022-11-20T09:28:36;4.18;;;2.70;;
74229;SDS011;62589;12.568;99.958;2022-11-20T09:31:09;3.30;;;2.70;;
74229;SDS011;62589;12.568;99.958;2022-11-20T09:33:45;5.53;;;2.90;;
74229;SDS011;62589;12.568;99.958;2022-11-20T09:36:11;3.95;;;3.00;;
74229;SDS011;62589;12.568;99.958;2022-11-20T09:38:38;4.43;;;3.20;;
74229;SDS011;62589;12.568;99.958;2022-11-20T09:41:13;4.75;;;2.60;;
74229;SDS011;62589;12.568;99.958;2022-11-20T09:46:57;3.38;;;2.85;;
74229;SDS011;62589;12.568;99.958;2022-11-20T09:49:50;4.30;;;2.50;;
74229;SDS011;62589;12.568;99.958;2022-11-20T09:52:49;3.63;;;2.45;;
74229;SDS011;62589;12.568;99.958;2022-11-20T09:55:31;4.15;;;2.55;;
74229;SDS011;62589;12.568;99.958;2022-11-20T09:57:59;4.93;;;2.40;;
74229;SDS011;62589;12.568;99.958;2022-11-20T10:00:26;5.53;;;2.60;;
74229;SDS011;62589;12.568;99.958;2022-11-20T10:02:59;3.67;;;2.25;;
74229;SDS011;62589;12.568;99.958;2022-11-20T10:08:21;3.13;;;2.55;;
74229;SDS011;62589;12.568;99.958;2022-11-20T10:13:59;3.08;;;2.58;;
74229;SDS011;62589;12.568;99.958;2022-11-20T10:16:52;4.03;;;2.60;;
74229;SDS011;62589;12.568;99.958;2022-11-20T10:19:45;4.53;;;2.47;;
74229;SDS011;62589;12.568;99.958;2022-11-20T10:25:02;2.47;;;2.28;;
74229;SDS011;62589;12.568;99.958;2022-11-20T10:27:47;4.85;;;2.67;;
74229;SDS011;62589;12.568;99.958;2022-11-20T10:30:37;3.53;;;2.78;;
74229;SDS011;62589;12.568;99.958;2022-11-20T10:33:15;4.25;;;2.50;;
74229;SDS011;62589;12.568;99.958;2022-11-20T10:35:49;2.60;;;2.40;;
74229;SDS011;62589;12.568;99.958;2022-11-20T10:38:37;3.28;;;2.83;;
74229;SDS011;62589;12.568;99.958;2022-11-20T10:41:16;4.22;;;2.70;;
74229;SDS011;62589;12.568;99.958;2022-11-20T10:44:00;3.65;;;2.83;;
74229;SDS011;62589;12.568;99.958;2022-11-20T10:46:53;4.20;;;3.05;;
74229;SDS011;62589;12.568;99.958;2022-11-20T10:49:19;4.88;;;3.00;;
74229;SDS011;62589;12.568;99.958;2022-11-20T11:00:35;8.80;;;5.80;;
74229;SDS011;62589;12.568;99.958;2022-11-20T11:03:02;9.20;;;5.47;;
74229;SDS011;62589;12.568;99.958;2022-11-20T11:08:18;12.15;;;6.15;;
74229;SDS011;62589;12.568;99.958;2022-11-20T11:10:52;14.40;;;6.20;;
74229;SDS011;62589;12.568;99.958;2022-11-20T11:13:28;10.30;;;6.43;;
74229;SDS011;62589;12.568;99.958;2022-11-20T11:15:56;11.38;;;6.72;;
74229;SDS011;62589;12.568;99.958;2022-11-20T11:18:27;10.35;;;6.50;;
74229;SDS011;62589;12.568;99.958;2022-11-20T11:20:59;8.77;;;5.00;;
74229;SDS011;62589;12.568;99.958;2022-11-20T11:26:23;7.97;;;5.00;;
74229;SDS011;62589;12.568;99.958;2022-11-20T11:28:54;9.15;;;5.25;;
74229;SDS011;62589;12.568;99.958;2022-11-20T11:31:26;7.70;;;4.97;;
74229;SDS011;62589;12.568;99.958;2022-11-20T11:34:04;7.07;;;4.53;;
74229;SDS011;62589;12.568;99.958;2022-11-20T11:36:32;7.38;;;4.53;;
74229;SDS011;62589;12.568;99.958;2022-11-20T11:39:00;6.22;;;4.10;;
74229;SDS011;62589;12.568;99.958;2022-11-20T11:41:30;5.95;;;4.15;;
74229;SDS011;62589;12.568;99.958;2022-11-20T11:46:54;8.23;;;4.43;;
74229;SDS011;62589;12.568;99.958;2022-11-20T11:49:22;8.98;;;5.13;;
74229;SDS011;62589;12.568;99.958;2022-11-20T11:57:37;10.00;;;4.50;;
74229;SDS011;62589;12.568;99.958;2022-11-20T12:00:16;6.30;;;4.63;;
74229;SDS011;62589;12.568;99.958;2022-11-20T12:02:55;5.00;;;3.90;;
74229;SDS011;62589;12.568;99.958;2022-11-20T12:05:42;6.73;;;4.20;;
74229;SDS011;62589;12.568;99.958;2022-11-20T12:11:12;5.80;;;3.72;;
74229;SDS011;62589;12.568;99.958;2022-11-20T12:16:57;6.82;;;4.07;;
74229;SDS011;62589;12.568;99.958;2022-11-20T12:19:23;6.85;;;3.70;;
74229;SDS011;62589;12.568;99.958;2022-11-20T12:25:01;7.13;;;4.28;;
74229;SDS011;62589;12.568;99.958;2022-11-20T12:27:50;7.20;;;4.63;;
74229;SDS011;62589;12.568;99.958;2022-11-20T12:30:33;7.85;;;4.50;;
74229;SDS011;62589;12.568;99.958;2022-11-20T12:33:30;9.55;;;5.00;;
74229;SDS011;62589;12.568;99.958;2022-11-20T12:39:27;11.60;;;6.43;;
74229;SDS011;62589;12.568;99.958;2022-11-20T12:51:13;19.85;;;12.10;;
74229;SDS011;62589;12.568;99.958;2022-11-20T12:57:02;22.50;;;12.77;;
74229;SDS011;62589;12.568;99.958;2022-11-20T13:05:43;17.85;;;10.73;;
74229;SDS011;62589;12.568;99.958;2022-11-20T13:08:34;16.45;;;10.82;;
74229;SDS011;62589;12.568;99.958;2022-11-20T13:11:06;17.88;;;9.90;;
74229;SDS011;62589;12.568;99.958;2022-11-20T13:16:48;15.90;;;10.27;;
74229;SDS011;62589;12.568;99.958;2022-11-20T13:19:35;15.70;;;9.80;;
74229;SDS011;62589;12.568;99.958;2022-11-20T13:22:02;19.02;;;10.38;;
74229;SDS011;62589;12.568;99.958;2022-11-20T13:24:32;23.27;;;13.02;;
74229;SDS011;62589;12.568;99.958;2022-11-20T13:27:16;24.73;;;14.32;;
74229;SDS011;62589;12.568;99.958;2022-11-20T13:29:46;31.35;;;15.52;;
74229;SDS011;62589;12.568;99.958;2022-11-20T13:32:27;25.88;;;14.38;;
74229;SDS011;62589;12.568;99.958;2022-11-20T13:35:02;23.10;;;13.60;;
74229;SDS011;62589;12.568;99.958;2022-11-20T13:37:34;20.98;;;12.65;;
74229;SDS011;62589;12.568;99.958;2022-11-20T13:43:01;20.67;;;11.13;;
74229;SDS011;62589;12.568;99.958;2022-11-20T13:45:33;16.50;;;9.73;;
74229;SDS011;62589;12.568;99.958;2022-11-20T13:48:02;14.05;;;8.82;;
74229;SDS011;62589;12.568;99.958;2022-11-20T13:51:15;14.63;;;8.40;;
74229;SDS011;62589;12.568;99.958;2022-11-20T14:00:08;10.45;;;6.95;;
74229;SDS011;62589;12.568;99.958;2022-11-20T14:02:40;13.57;;;8.32;;
74229;SDS011;62589;12.568;99.958;2022-11-20T14:05:13;12.90;;;8.57;;
74229;SDS011;62589;12.568;99.958;2022-11-20T14:07:49;14.18;;;8.82;;
74229;SDS011;62589;12.568;99.958;2022-11-20T14:10:24;16.55;;;10.00;;
74229;SDS011;62589;12.568;99.958;2022-11-20T14:12:53;17.35;;;9.70;;
74229;SDS011;62589;12.568;99.958;2022-11-20T14:17:59;13.80;;;8.57;;
74229;SDS011;62589;12.568;99.958;2022-11-20T14:20:37;11.15;;;7.50;;
74229;SDS011;62589;12.568;99.958;2022-11-20T14:23:04;12.40;;;7.90;;
74229;SDS011;62589;12.568;99.958;2022-11-20T14:25:34;12.73;;;7.45;;
74229;SDS011;62589;12.568;99.958;2022-11-20T14:28:02;13.00;;;7.78;;
74229;SDS011;62589;12.568;99.958;2022-11-20T14:33:12;14.68;;;7.80;;
74229;SDS011;62589;12.568;99.958;2022-11-20T14:35:44;10.32;;;6.90;;
74229;SDS011;62589;12.568;99.958;2022-11-20T14:38:13;11.60;;;7.05;;
74229;SDS011;62589;12.568;99.958;2022-11-20T14:40:42;18.25;;;7.07;;
74229;SDS011;62589;12.568;99.958;2022-11-20T14:43:17;35.10;;;9.07;;
74229;SDS011;62589;12.568;99.958;2022-11-20T14:48:45;34.05;;;8.23;;
74229;SDS011;62589;12.568;99.958;2022-11-20T14:51:23;36.50;;;8.95;;
74229;SDS011;62589;12.568;99.958;2022-11-20T14:54:14;43.90;;;10.35;;
74229;SDS011;62589;12.568;99.958;2022-11-20T14:56:42;47.83;;;10.82;;
74229;SDS011;62589;12.568;99.958;2022-11-20T14:59:24;36.85;;;8.05;;
74229;SDS011;62589;12.568;99.958;2022-11-20T15:01:59;37.58;;;7.97;;
74229;SDS011;62589;12.568;99.958;2022-11-20T15:07:26;26.00;;;5.45;;
74229;SDS011;62589;12.568;99.958;2022-11-20T15:12:54;21.35;;;4.10;;
74229;SDS011;62589;12.568;99.958;2022-11-20T15:18:36;21.00;;;3.60;;
74229;SDS011;62589;12.568;99.958;2022-11-20T15:21:11;17.38;;;4.18;;
74229;SDS011;62589;12.568;99.958;2022-11-20T15:23:42;16.42;;;3.30;;
74229;SDS011;62589;12.568;99.958;2022-11-20T15:26:10;12.52;;;3.13;;
74229;SDS011;62589;12.568;99.958;2022-11-20T15:28:42;8.82;;;1.92;;
74229;SDS011;62589;12.568;99.958;2022-11-20T15:31:13;11.27;;;2.28;;
74229;SDS011;62589;12.568;99.958;2022-11-20T15:33:41;8.27;;;1.85;;
74229;SDS011;62589;12.568;99.958;2022-11-20T15:36:08;8.27;;;2.05;;
74229;SDS011;62589;12.568;99.958;2022-11-20T15:38:35;7.15;;;1.98;;
74229;SDS011;62589;12.568;99.958;2022-11-20T15:41:02;10.68;;;2.58;;
74229;SDS011;62589;12.568;99.958;2022-11-20T15:43:28;6.70;;;1.88;;
74229;SDS011;62589;12.568;99.958;2022-11-20T15:45:56;5.40;;;1.95;;
74229;SDS011;62589;12.568;99.958;2022-11-20T15:48:27;8.15;;;2.67;;
74229;SDS011;62589;12.568;99.958;2022-11-20T15:51:26;9.52;;;2.38;;
74229;SDS011;62589;12.568;99.958;2022-11-20T15:53:55;7.03;;;2.25;;
74229;SDS011;62589;12.568;99.958;2022-11-20T15:56:22;10.88;;;2.80;;
74229;SDS011;62589;12.568;99.958;2022-11-20T15:58:50;5.43;;;2.28;;
74229;SDS011;62589;12.568;99.958;2022-11-20T16:01:17;5.13;;;2.20;;
74229;SDS011;62589;12.568;99.958;2022-11-20T16:03:46;7.57;;;2.40;;
74229;SDS011;62589;12.568;99.958;2022-11-20T16:06:14;6.15;;;2.22;;
74229;SDS011;62589;12.568;99.958;2022-11-20T16:08:41;6.53;;;2.63;;
74229;SDS011;62589;12.568;99.958;2022-11-20T16:11:10;6.20;;;2.40;;
74229;SDS011;62589;12.568;99.958;2022-11-20T16:13:38;7.53;;;2.40;;
74229;SDS011;62589;12.568;99.958;2022-11-20T16:16:21;7.10;;;2.45;;
74229;SDS011;62589;12.568;99.958;2022-11-20T16:18:53;7.28;;;2.95;;
74229;SDS011;62589;12.568;99.958;2022-11-20T16:21:20;8.68;;;3.03;;
74229;SDS011;62589;12.568;99.958;2022-11-20T16:23:53;8.37;;;2.90;;
74229;SDS011;62589;12.568;99.958;2022-11-20T16:26:20;7.13;;;2.65;;
74229;SDS011;62589;12.568;99.958;2022-11-20T16:28:46;6.97;;;2.60;;
74229;SDS011;62589;12.568;99.958;2022-11-20T16:31:14;7.78;;;2.40;;